createdAt,value
2023-04-06T00:02:36.223Z,-1.25
2023-04-06T00:05:38.997Z,-1.15
2023-04-06T00:08:42.630Z,-1.25
2023-04-06T00:11:45.442Z,-1.37
2023-04-06T00:14:48.266Z,-1.44
2023-04-06T00:17:51.230Z,-1.45
2023-04-06T00:20:53.992Z,-1.57
2023-04-06T00:23:56.963Z,-1.36
2023-04-06T00:26:59.792Z,-1.29
2023-04-06T00:30:03.348Z,-1.37
2023-04-06T00:33:06.374Z,-1.36
2023-04-06T00:36:09.288Z,-1.39
2023-04-06T00:39:12.345Z,-1.36
2023-04-06T00:42:15.606Z,-1.39
2023-04-06T00:45:18.559Z,-1.17
2023-04-06T00:48:21.517Z,-1.05
2023-04-06T00:51:24.420Z,-0.99
2023-04-06T00:54:27.365Z,-0.98
2023-04-06T00:57:30.999Z,-1.01
2023-04-06T01:00:34.770Z,-1.04
2023-04-06T01:03:39.387Z,-1.04
2023-04-06T01:06:43.268Z,-1.24
2023-04-06T01:09:46.080Z,-1.38
2023-04-06T01:12:55.741Z,-1.37
2023-04-06T01:16:17.549Z,-1.53
2023-04-06T01:19:30.514Z,-1.74
2023-04-06T01:22:34.143Z,-1.65
2023-04-06T01:25:39.402Z,-1.85
2023-04-06T01:28:45.648Z,-1.95
2023-04-06T01:31:59.702Z,-1.94
2023-04-06T01:35:02.612Z,-2.22
2023-04-06T01:38:10.282Z,-2.18
2023-04-06T01:41:14.125Z,-1.84
2023-04-06T01:44:31.638Z,-1.55
2023-04-06T01:47:43.420Z,-1.58
2023-04-06T01:50:48.653Z,-1.67
2023-04-06T01:53:57.107Z,-1.61
2023-04-06T01:57:07.951Z,-1.51
2023-04-06T02:00:31.009Z,-1.74
2023-04-06T02:03:33.893Z,-1.90
2023-04-06T02:06:42.910Z,-2.06
2023-04-06T02:09:48.541Z,-2.21
2023-04-06T02:13:00.138Z,-2.37
2023-04-06T02:16:04.192Z,-2.42
2023-04-06T02:19:07.872Z,-2.48
2023-04-06T02:22:11.562Z,-2.55
2023-04-06T02:25:14.451Z,-2.60
2023-04-06T02:28:17.430Z,-2.55
2023-04-06T02:31:20.235Z,-2.51
2023-04-06T02:34:26.464Z,-2.52
2023-04-06T02:37:30.692Z,-2.51
2023-04-06T02:40:35.639Z,-2.55
2023-04-06T02:43:49.516Z,-2.51
2023-04-06T02:47:02.197Z,-2.54
2023-04-06T02:50:06.423Z,-2.51
2023-04-06T02:53:14.404Z,-2.56
2023-04-06T02:56:17.712Z,-2.49
2023-04-06T02:59:25.751Z,-2.50
2023-04-06T03:02:40.960Z,-2.48
2023-04-06T03:05:50.905Z,-2.61
2023-04-06T03:09:00.857Z,-2.59
2023-04-06T03:12:10.439Z,-2.44
2023-04-06T03:15:36.171Z,-2.46
2023-04-06T03:18:48.983Z,-2.45
2023-04-06T03:21:51.810Z,-2.38
2023-04-06T03:24:56.631Z,-2.37
2023-04-06T03:27:59.628Z,-2.47
2023-04-06T03:31:03.110Z,-2.37
2023-04-06T03:34:18.014Z,-2.27
2023-04-06T03:37:20.906Z,-2.32
2023-04-06T03:40:28.820Z,-2.21
2023-04-06T03:43:31.722Z,-2.28
2023-04-06T03:46:34.582Z,-2.56
2023-04-06T03:49:38.616Z,-2.67
2023-04-06T03:52:45.012Z,-2.77
2023-04-06T03:55:48.349Z,-2.86
2023-04-06T03:58:52.046Z,-2.92
2023-04-06T04:01:57.354Z,-2.89
2023-04-06T04:05:00.173Z,-2.83
2023-04-06T04:08:03.195Z,-2.79
2023-04-06T04:11:06.784Z,-2.80
2023-04-06T04:14:09.901Z,-2.76
2023-04-06T04:17:12.731Z,-2.69
2023-04-06T04:20:15.843Z,-2.54
2023-04-06T04:23:18.572Z,-2.57
2023-04-06T04:26:21.386Z,-2.64
2023-04-06T04:29:24.383Z,-2.46
2023-04-06T04:32:30.105Z,-2.46
2023-04-06T04:35:34.961Z,-2.30
2023-04-06T04:38:39.799Z,-2.34
2023-04-06T04:41:43.176Z,-2.32
2023-04-06T04:44:48.632Z,-2.35
2023-04-06T04:47:56.891Z,-2.20
2023-04-06T04:51:05.316Z,-2.07
2023-04-06T04:54:20.542Z,-1.88
2023-04-06T04:57:23.469Z,-1.69
2023-04-06T05:00:28.569Z,-1.57
2023-04-06T05:03:34.669Z,-1.45
2023-04-06T05:06:41.839Z,-1.39
2023-04-06T05:09:46.839Z,-1.36
2023-04-06T05:12:50.930Z,-1.29
2023-04-06T05:15:53.777Z,-1.27
2023-04-06T05:19:09.354Z,-1.22
2023-04-06T05:22:19.061Z,-1.17
2023-04-06T05:25:28.527Z,-1.12
2023-04-06T05:28:35.451Z,-1.12
2023-04-06T05:31:39.228Z,-1.01
2023-04-06T05:34:42.214Z,-1.02
2023-04-06T05:37:45.545Z,-0.98
2023-04-06T05:40:48.806Z,-0.73
2023-04-06T05:43:54.832Z,-0.75
2023-04-06T05:46:59.610Z,-0.76
2023-04-06T05:50:04.671Z,-0.62
2023-04-06T05:53:12.556Z,-0.43
2023-04-06T05:56:20.220Z,-0.27
2023-04-06T05:59:25.261Z,-0.27
2023-04-06T06:02:32.228Z,-0.04
2023-04-06T06:05:35.319Z,0.05
2023-04-06T06:08:47.145Z,0.19
2023-04-06T06:11:52.780Z,0.31
2023-04-06T06:14:59.983Z,0.30
2023-04-06T06:18:04.828Z,0.21
2023-04-06T06:21:07.989Z,0.27
2023-04-06T06:24:11.351Z,0.29
2023-04-06T06:27:15.799Z,0.28
2023-04-06T06:30:20.442Z,0.52
2023-04-06T06:33:27.355Z,0.55
2023-04-06T06:36:33.234Z,0.63
2023-04-06T06:39:37.794Z,0.64
2023-04-06T06:42:41.122Z,0.69
2023-04-06T06:46:07.793Z,0.53
2023-04-06T06:49:12.817Z,0.57
2023-04-06T06:52:16.042Z,0.72
2023-04-06T06:55:23.022Z,0.67
2023-04-06T06:58:26.224Z,0.86
2023-04-06T07:01:30.002Z,0.88
2023-04-06T07:04:35.402Z,1.01
2023-04-06T07:07:38.310Z,1.25
2023-04-06T07:10:41.226Z,1.10
2023-04-06T07:13:44.451Z,1.05
2023-04-06T07:16:48.343Z,1.45
2023-04-06T07:19:51.838Z,1.32
2023-04-06T07:22:54.755Z,1.51
2023-04-06T07:25:57.540Z,1.64
2023-04-06T07:29:00.529Z,1.77
2023-04-06T07:32:04.280Z,1.76
2023-04-06T07:35:08.413Z,2.11
2023-04-06T07:38:11.875Z,2.19
2023-04-06T07:41:16.242Z,2.18
2023-04-06T07:44:19.648Z,2.67
2023-04-06T07:47:24.879Z,2.72
2023-04-06T07:50:27.886Z,2.96
2023-04-06T07:53:32.467Z,3.11
2023-04-06T07:56:35.336Z,2.96
2023-04-06T07:59:38.515Z,3.05
2023-04-06T08:02:41.831Z,3.08
2023-04-06T08:05:44.537Z,3.26
2023-04-06T08:08:47.393Z,3.75
2023-04-06T08:11:50.433Z,3.72
2023-04-06T08:14:53.519Z,3.77
2023-04-06T08:17:58.541Z,3.83
2023-04-06T08:21:01.389Z,4.08
2023-04-06T08:24:04.884Z,4.04
2023-04-06T08:27:08.083Z,4.33
2023-04-06T08:30:11.407Z,4.08
2023-04-06T08:33:14.405Z,4.74
2023-04-06T08:36:18.312Z,4.57
2023-04-06T08:39:26.723Z,4.72
2023-04-06T08:42:33.815Z,5.16
2023-04-06T08:45:42.118Z,4.81
2023-04-06T08:48:45.565Z,4.73
2023-04-06T08:51:48.766Z,5.19
2023-04-06T08:54:51.787Z,4.97
2023-04-06T08:57:56.502Z,5.17
2023-04-06T09:01:00.842Z,5.10
2023-04-06T09:04:09.515Z,5.51
2023-04-06T09:07:12.574Z,5.45
2023-04-06T09:10:16.977Z,6.08
2023-04-06T09:13:24.050Z,5.98
2023-04-06T09:16:27.323Z,5.69
2023-04-06T09:19:30.316Z,5.38
2023-04-06T09:22:43.529Z,5.59
2023-04-06T09:25:46.499Z,6.22
2023-04-06T09:28:54.990Z,5.96
2023-04-06T09:32:08.493Z,6.05
2023-04-06T09:35:11.849Z,5.81
2023-04-06T09:38:14.870Z,6.00
2023-04-06T09:41:30.083Z,5.73
2023-04-06T09:44:33.082Z,6.38
2023-04-06T09:47:38.953Z,5.94
2023-04-06T09:50:42.118Z,5.68
2023-04-06T09:53:46.872Z,5.79
2023-04-06T09:56:58.733Z,5.77
2023-04-06T10:00:15.844Z,5.81
2023-04-06T10:03:31.768Z,6.64
2023-04-06T10:06:36.704Z,6.65
2023-04-06T10:09:39.858Z,7.03
2023-04-06T10:12:43.371Z,6.94
2023-04-06T10:15:46.479Z,6.62
2023-04-06T10:18:53.671Z,6.58
2023-04-06T10:21:56.446Z,6.82
2023-04-06T10:24:59.730Z,6.75
2023-04-06T10:28:06.709Z,6.19
2023-04-06T10:31:09.452Z,6.13
2023-04-06T10:34:12.458Z,5.93
2023-04-06T10:37:16.278Z,5.97
2023-04-06T10:40:21.366Z,6.10
2023-04-06T10:43:24.435Z,5.81
2023-04-06T10:46:29.023Z,6.21
2023-04-06T10:49:32.544Z,6.29
2023-04-06T10:52:35.949Z,6.23
2023-04-06T10:55:41.818Z,6.43
2023-04-06T10:58:49.677Z,6.43
2023-04-06T11:01:52.845Z,6.54
2023-04-06T11:04:57.925Z,6.23
2023-04-06T11:08:00.883Z,6.21
2023-04-06T11:11:10.692Z,6.10
2023-04-06T11:14:13.634Z,6.13
2023-04-06T11:17:16.662Z,6.14
2023-04-06T11:20:20.962Z,5.97
2023-04-06T11:23:25.901Z,5.70
2023-04-06T11:26:28.973Z,6.05
2023-04-06T11:29:33.398Z,5.89
2023-04-06T11:32:47.139Z,5.96
2023-04-06T11:35:52.460Z,6.25
2023-04-06T11:38:55.325Z,6.02
2023-04-06T11:42:05.558Z,6.09
2023-04-06T11:45:10.484Z,6.23
2023-04-06T11:48:21.095Z,6.04
2023-04-06T11:51:28.649Z,6.12
2023-04-06T11:54:39.353Z,6.52
2023-04-06T11:57:43.004Z,6.61
2023-04-06T12:00:47.699Z,6.71
2023-04-06T12:03:51.811Z,6.55
2023-04-06T12:06:54.842Z,6.28
2023-04-06T12:09:57.997Z,5.85
2023-04-06T12:13:00.912Z,6.04
2023-04-06T12:16:03.980Z,5.93
2023-04-06T12:19:06.858Z,5.95
2023-04-06T12:22:09.741Z,6.02
2023-04-06T12:25:13.872Z,6.06
2023-04-06T12:28:16.977Z,6.09
2023-04-06T12:31:21.359Z,6.39
2023-04-06T12:34:24.322Z,6.02
2023-04-06T12:37:28.412Z,6.65
2023-04-06T12:40:31.477Z,6.53
2023-04-06T12:43:34.694Z,6.12
2023-04-06T12:46:40.882Z,5.72
2023-04-06T12:49:44.217Z,5.58
2023-04-06T12:52:47.222Z,5.66
2023-04-06T12:55:49.921Z,5.44
2023-04-06T12:58:53.838Z,5.60
2023-04-06T13:01:56.767Z,5.80
2023-04-06T13:04:59.723Z,5.54
2023-04-06T13:08:02.496Z,5.62
2023-04-06T13:11:06.377Z,5.67
2023-04-06T13:14:09.254Z,5.57
2023-04-06T13:17:12.456Z,5.48
2023-04-06T13:20:15.877Z,5.45
2023-04-06T13:23:18.711Z,5.58
2023-04-06T13:26:22.822Z,5.47
2023-04-06T13:29:26.015Z,5.44
2023-04-06T13:32:29.113Z,5.25
2023-04-06T13:35:31.842Z,5.55
2023-04-06T13:38:34.963Z,5.31
2023-04-06T13:41:37.944Z,5.37
2023-04-06T13:44:40.794Z,5.17
2023-04-06T13:47:43.769Z,5.25
2023-04-06T13:50:47.224Z,5.41
2023-04-06T13:53:53.816Z,5.54
2023-04-06T13:56:58.273Z,5.64
2023-04-06T14:00:02.891Z,5.63
2023-04-06T14:03:08.211Z,5.54
2023-04-06T14:06:20.679Z,5.60
2023-04-06T14:09:31.299Z,5.30
2023-04-06T14:12:34.177Z,5.03
2023-04-06T14:15:37.378Z,4.81
2023-04-06T14:18:40.219Z,5.08
2023-04-06T14:21:44.990Z,5.18
2023-04-06T14:24:48.321Z,4.63
2023-04-06T14:27:51.921Z,4.50
2023-04-06T14:30:54.824Z,4.27
2023-04-06T14:33:58.429Z,3.84
2023-04-06T14:37:01.313Z,3.60
2023-04-06T14:40:04.969Z,3.51
2023-04-06T14:43:07.795Z,3.65
2023-04-06T14:46:10.843Z,3.58
2023-04-06T14:49:14.297Z,3.84
2023-04-06T14:52:17.597Z,3.69
2023-04-06T14:55:20.352Z,3.77
2023-04-06T14:58:24.309Z,3.65
2023-04-06T15:01:27.061Z,3.64
2023-04-06T15:07:34.122Z,3.39
2023-04-06T15:10:37.280Z,3.55
2023-04-06T15:13:41.369Z,3.33
2023-04-06T15:16:44.186Z,3.23
2023-04-06T15:19:46.993Z,3.22
2023-04-06T15:22:49.915Z,3.26
2023-04-06T15:25:54.922Z,3.47
2023-04-06T15:28:57.725Z,3.12
2023-04-06T15:32:00.621Z,2.97
2023-04-06T15:35:10.823Z,2.86
2023-04-06T15:38:13.889Z,3.03
2023-04-06T15:41:16.888Z,2.60
2023-04-06T15:44:20.483Z,2.53
2023-04-06T15:47:24.428Z,2.55
2023-04-06T15:50:28.420Z,2.30
2023-04-06T15:53:31.556Z,2.21
2023-04-06T15:56:34.613Z,2.19
2023-04-06T15:59:37.515Z,2.08
2023-04-06T16:02:40.536Z,1.91
2023-04-06T16:05:48.888Z,1.95
2023-04-06T16:08:59.239Z,1.80
2023-04-06T16:12:02.085Z,1.83
2023-04-06T16:15:05.406Z,1.73
2023-04-06T16:18:08.154Z,1.64
2023-04-06T16:21:18.592Z,1.60
2023-04-06T16:24:22.410Z,1.51
2023-04-06T16:27:25.162Z,1.39
2023-04-06T16:30:30.508Z,1.37
2023-04-06T16:33:33.229Z,1.38
2023-04-06T16:36:36.072Z,1.33
2023-04-06T16:39:38.876Z,1.21
2023-04-06T16:42:45.031Z,1.12
2023-04-06T16:45:51.733Z,1.15
2023-04-06T16:48:55.179Z,1.12
2023-04-06T16:52:02.194Z,1.10
2023-04-06T16:55:05.709Z,1.00
2023-04-06T16:58:08.887Z,1.02
2023-04-06T17:01:41.445Z,0.97
2023-04-06T17:04:44.906Z,0.98
2023-04-06T17:07:47.726Z,0.98
2023-04-06T17:10:59.251Z,0.89
2023-04-06T17:14:05.727Z,0.86
2023-04-06T17:17:08.748Z,0.85
2023-04-06T17:20:11.807Z,0.90
2023-04-06T17:23:15.668Z,0.80
2023-04-06T17:26:18.604Z,0.80
2023-04-06T17:29:21.385Z,0.68
2023-04-06T17:32:24.117Z,0.70
2023-04-06T17:35:27.270Z,0.68
2023-04-06T17:38:30.166Z,0.65
2023-04-06T17:41:35.017Z,0.60
2023-04-06T17:44:38.928Z,0.54
2023-04-06T17:47:41.820Z,0.51
2023-04-06T17:50:45.260Z,0.52
2023-04-06T17:53:48.258Z,0.52
2023-04-06T17:56:52.217Z,0.46
2023-04-06T17:59:55.035Z,0.53
2023-04-06T18:02:57.892Z,0.53
2023-04-06T18:06:15.274Z,0.56
2023-04-06T18:09:18.298Z,0.63
2023-04-06T18:12:21.072Z,0.59
2023-04-06T18:15:24.172Z,0.53
2023-04-06T18:18:28.652Z,0.51
2023-04-06T18:21:34.846Z,0.46
2023-04-06T18:24:42.541Z,0.53
2023-04-06T18:27:46.378Z,0.54
2023-04-06T18:30:49.356Z,0.58
2023-04-06T18:33:53.859Z,0.59
2023-04-06T18:36:57.538Z,0.57
2023-04-06T18:40:01.347Z,0.56
2023-04-06T18:43:07.287Z,0.59
2023-04-06T18:46:15.724Z,0.64
2023-04-06T18:49:18.759Z,0.64
2023-04-06T18:52:21.652Z,0.69
2023-04-06T18:55:25.856Z,0.76
2023-04-06T18:58:28.865Z,0.75
2023-04-06T19:01:32.804Z,0.75
2023-04-06T19:04:35.899Z,0.75
2023-04-06T19:07:39.959Z,0.77
2023-04-06T19:10:42.987Z,0.78
2023-04-06T19:13:50.388Z,0.74
2023-04-06T19:16:53.472Z,0.79
2023-04-06T19:19:58.035Z,0.82
2023-04-06T19:23:01.035Z,0.82
2023-04-06T19:26:03.898Z,0.80
2023-04-06T19:29:07.130Z,0.82
2023-04-06T19:32:12.018Z,0.83
2023-04-06T19:35:14.993Z,0.84
2023-04-06T19:38:17.855Z,0.85
2023-04-06T19:41:22.042Z,0.95
2023-04-06T19:44:27.112Z,0.85
2023-04-06T19:47:30.348Z,0.91
2023-04-06T19:50:33.322Z,0.90
2023-04-06T19:53:36.981Z,0.90
2023-04-06T19:56:40.190Z,0.90
2023-04-06T19:59:43.079Z,0.88
2023-04-06T20:02:46.289Z,0.90
2023-04-06T20:05:49.469Z,0.83
2023-04-06T20:08:52.350Z,0.89
2023-04-06T20:11:55.148Z,0.85
2023-04-06T20:14:58.286Z,0.80
2023-04-06T20:18:01.224Z,0.86
2023-04-06T20:21:04.036Z,0.85
2023-04-06T20:24:07.362Z,0.84
2023-04-06T20:27:10.192Z,0.84
2023-04-06T20:30:15.338Z,0.84
2023-04-06T20:33:18.253Z,0.80
2023-04-06T20:36:22.284Z,0.87
2023-04-06T20:39:27.748Z,0.80
2023-04-06T20:42:30.612Z,0.86
2023-04-06T20:45:38.879Z,0.83
2023-04-06T20:48:41.721Z,0.85
2023-04-06T20:51:46.195Z,0.85
2023-04-06T20:54:51.026Z,0.85
2023-04-06T20:57:53.973Z,0.88
2023-04-06T21:00:58.148Z,0.89
2023-04-06T21:04:02.656Z,0.91
2023-04-06T21:07:07.555Z,0.92
2023-04-06T21:10:10.813Z,0.92
2023-04-06T21:13:13.696Z,0.90
2023-04-06T21:16:16.524Z,0.95
2023-04-06T21:19:19.510Z,0.84
2023-04-06T21:22:23.541Z,0.84
2023-04-06T21:25:26.328Z,0.84
2023-04-06T21:28:29.391Z,0.87
2023-04-06T21:31:32.402Z,0.80
2023-04-06T21:34:35.175Z,0.91
2023-04-06T21:37:38.168Z,0.95
2023-04-06T21:40:41.147Z,0.90
2023-04-06T21:43:43.984Z,0.95
2023-04-06T21:46:46.796Z,0.88
2023-04-06T21:49:49.621Z,0.90
2023-04-06T21:52:52.361Z,0.95
2023-04-06T21:55:55.146Z,0.94
2023-04-06T21:58:57.923Z,0.90
2023-04-06T22:02:00.764Z,0.88
2023-04-06T22:05:04.657Z,0.88
2023-04-06T22:08:09.536Z,0.88
2023-04-06T22:11:13.907Z,0.88
2023-04-06T22:14:18.163Z,0.88
2023-04-06T22:17:21.105Z,0.85
2023-04-06T22:20:23.913Z,0.86
2023-04-06T22:23:26.771Z,0.85
2023-04-06T22:26:29.482Z,0.87
2023-04-06T22:29:32.194Z,0.82
2023-04-06T22:32:35.125Z,0.87
2023-04-06T22:35:38.373Z,0.80
2023-04-06T22:38:41.258Z,0.74
2023-04-06T22:41:44.070Z,0.67
2023-04-06T22:44:46.820Z,0.62
2023-04-06T22:47:49.553Z,0.57
2023-04-06T22:50:52.415Z,0.54
2023-04-06T22:53:55.235Z,0.59
2023-04-06T22:56:57.892Z,0.60
2023-04-06T23:00:00.999Z,0.60
2023-04-06T23:03:03.881Z,0.57
2023-04-06T23:06:06.918Z,0.67
2023-04-06T23:09:09.699Z,0.70
2023-04-06T23:12:12.353Z,0.62
2023-04-06T23:15:15.082Z,0.65
2023-04-06T23:18:17.831Z,0.67
2023-04-06T23:21:20.602Z,0.59
2023-04-06T23:24:23.696Z,0.53
2023-04-06T23:27:26.476Z,0.52
2023-04-06T23:30:29.223Z,0.52
2023-04-06T23:33:31.823Z,0.56
2023-04-06T23:36:34.618Z,0.50
2023-04-06T23:39:37.384Z,0.54
2023-04-06T23:42:40.151Z,0.49
2023-04-06T23:45:43.199Z,0.51
2023-04-06T23:48:46.036Z,0.51
2023-04-06T23:51:48.747Z,0.53
2023-04-06T23:54:51.488Z,0.52
2023-04-06T23:57:54.164Z,0.49
